createdAt,value
2023-01-23T00:00:40.247Z,8.35
2023-01-23T00:03:07.100Z,8.40
2023-01-23T00:05:34.127Z,9.15
2023-01-23T00:08:01.036Z,9.57
2023-01-23T00:10:28.121Z,8.57
2023-01-23T00:12:56.917Z,8.32
2023-01-23T00:15:23.918Z,9.23
2023-01-23T00:17:50.736Z,7.20
2023-01-23T00:20:17.892Z,9.73
2023-01-23T00:22:44.910Z,8.93
2023-01-23T00:25:11.778Z,9.55
2023-01-23T00:27:38.969Z,9.43
2023-01-23T00:30:06.396Z,8.20
2023-01-23T00:32:33.328Z,7.65
2023-01-23T00:35:00.667Z,8.25
2023-01-23T00:37:27.480Z,9.60
2023-01-23T00:39:54.402Z,8.02
2023-01-23T00:42:21.187Z,8.57
2023-01-23T00:44:48.176Z,8.93
2023-01-23T00:47:15.211Z,9.23
2023-01-23T00:49:42.091Z,10.35
2023-01-23T00:52:08.899Z,9.40
2023-01-23T00:54:35.851Z,8.55
2023-01-23T00:57:02.981Z,9.32
2023-01-23T00:59:29.954Z,12.15
2023-01-23T01:01:57.048Z,10.88
2023-01-23T01:04:24.093Z,9.02
2023-01-23T01:06:50.961Z,11.43
2023-01-23T01:09:17.949Z,10.38
2023-01-23T01:11:44.847Z,11.52
2023-01-23T01:14:14.192Z,10.20
2023-01-23T01:16:45.418Z,13.25
2023-01-23T01:19:16.170Z,11.57
2023-01-23T01:21:43.332Z,10.88
2023-01-23T01:24:10.201Z,10.63
2023-01-23T01:26:37.230Z,10.35
2023-01-23T01:29:04.130Z,9.98
2023-01-23T01:31:31.034Z,13.38
2023-01-23T01:33:57.795Z,8.52
2023-01-23T01:36:25.340Z,13.70
2023-01-23T01:38:52.837Z,13.30
2023-01-23T01:41:19.674Z,11.20
2023-01-23T01:43:47.250Z,10.70
2023-01-23T01:46:21.344Z,9.00
2023-01-23T01:49:06.075Z,9.57
2023-01-23T01:52:11.929Z,8.93
2023-01-23T01:54:41.414Z,10.15
2023-01-23T01:57:30.279Z,8.90
2023-01-23T02:00:08.896Z,6.75
2023-01-23T02:02:37.359Z,7.90
2023-01-23T02:05:25.847Z,8.25
2023-01-23T02:08:01.543Z,8.48
2023-01-23T02:10:28.373Z,6.82
2023-01-23T02:12:55.123Z,7.60
2023-01-23T02:15:22.416Z,7.13
2023-01-23T02:17:50.811Z,8.57
2023-01-23T02:20:29.629Z,8.63
2023-01-23T02:23:05.525Z,7.75
2023-01-23T02:25:41.229Z,7.10
2023-01-23T02:28:10.080Z,8.45
2023-01-23T02:30:37.646Z,7.68
2023-01-23T02:33:31.289Z,9.65
2023-01-23T02:35:59.441Z,6.25
2023-01-23T02:38:27.709Z,7.88
2023-01-23T02:40:54.492Z,8.98
2023-01-23T02:43:22.606Z,10.35
2023-01-23T02:45:49.466Z,8.40
2023-01-23T02:48:16.540Z,7.07
2023-01-23T02:50:46.464Z,7.47
2023-01-23T02:53:13.650Z,9.32
2023-01-23T02:55:43.635Z,10.73
2023-01-23T02:58:28.810Z,9.50
2023-01-23T03:00:55.793Z,9.55
2023-01-23T03:03:23.050Z,9.95
2023-01-23T03:05:50.385Z,10.15
2023-01-23T03:08:17.156Z,10.18
2023-01-23T03:10:44.083Z,9.13
2023-01-23T03:13:12.260Z,9.43
2023-01-23T03:15:39.414Z,8.68
2023-01-23T03:18:06.489Z,10.38
2023-01-23T03:20:40.490Z,9.50
2023-01-23T03:23:07.953Z,10.52
2023-01-23T03:25:34.880Z,9.77
2023-01-23T03:28:02.352Z,10.15
2023-01-23T03:30:29.486Z,10.48
2023-01-23T03:32:56.384Z,7.47
2023-01-23T03:35:23.370Z,9.02
2023-01-23T03:37:50.954Z,10.25
2023-01-23T03:40:37.686Z,9.70
2023-01-23T03:43:04.659Z,10.25
2023-01-23T03:45:31.678Z,7.30
2023-01-23T03:47:58.980Z,7.03
2023-01-23T03:50:25.798Z,8.93
2023-01-23T03:52:52.655Z,7.43
2023-01-23T03:55:19.762Z,6.60
2023-01-23T03:57:46.606Z,8.10
2023-01-23T04:00:16.763Z,6.57
2023-01-23T04:02:43.822Z,5.93
2023-01-23T04:05:10.667Z,6.82
2023-01-23T04:07:37.520Z,5.22
2023-01-23T04:10:04.616Z,4.70
2023-01-23T04:12:32.028Z,6.30
2023-01-23T04:14:58.892Z,5.00
2023-01-23T04:17:26.282Z,6.30
2023-01-23T04:19:53.232Z,5.35
2023-01-23T04:22:21.017Z,4.47
2023-01-23T04:24:47.931Z,4.75
2023-01-23T04:27:15.263Z,5.57
2023-01-23T04:29:42.321Z,4.72
2023-01-23T04:32:10.050Z,4.15
2023-01-23T04:34:36.898Z,5.30
2023-01-23T04:37:03.733Z,5.75
2023-01-23T04:39:31.859Z,5.43
2023-01-23T04:41:59.050Z,4.93
2023-01-23T04:44:27.003Z,6.22
2023-01-23T04:46:54.369Z,5.40
2023-01-23T04:49:22.579Z,6.15
2023-01-23T04:51:50.128Z,5.28
2023-01-23T04:54:17.489Z,7.47
2023-01-23T04:56:44.455Z,5.72
2023-01-23T04:59:11.545Z,5.80
2023-01-23T05:01:38.561Z,5.28
2023-01-23T05:04:05.584Z,6.25
2023-01-23T05:06:32.586Z,6.22
2023-01-23T05:08:59.441Z,5.78
2023-01-23T05:11:26.284Z,6.53
2023-01-23T05:13:53.300Z,4.72
2023-01-23T05:16:20.100Z,7.65
2023-01-23T05:18:46.948Z,9.13
2023-01-23T05:21:13.855Z,8.52
2023-01-23T05:23:40.832Z,6.53
2023-01-23T05:26:07.944Z,5.90
2023-01-23T05:28:34.927Z,7.50
2023-01-23T05:31:01.891Z,7.00
2023-01-23T05:33:29.141Z,6.88
2023-01-23T05:36:00.542Z,6.68
2023-01-23T05:38:27.547Z,7.50
2023-01-23T05:40:57.230Z,5.90
2023-01-23T05:43:24.178Z,8.27
2023-01-23T05:45:51.135Z,7.10
2023-01-23T05:48:18.227Z,7.47
2023-01-23T05:50:47.682Z,5.93
2023-01-23T05:53:14.623Z,6.60
2023-01-23T05:55:41.756Z,8.15
2023-01-23T05:58:08.641Z,7.40
2023-01-23T06:00:35.666Z,6.03
2023-01-23T06:03:02.453Z,6.95
2023-01-23T06:05:29.343Z,6.72
2023-01-23T06:07:56.834Z,5.43
2023-01-23T06:10:23.655Z,6.97
2023-01-23T06:12:50.291Z,6.00
2023-01-23T06:15:17.190Z,6.32
2023-01-23T06:17:44.171Z,7.22
2023-01-23T06:20:12.614Z,5.45
2023-01-23T06:22:40.452Z,6.13
2023-01-23T06:25:07.686Z,7.72
2023-01-23T06:27:34.725Z,7.22
2023-01-23T06:30:01.646Z,5.18
2023-01-23T06:32:28.689Z,5.25
2023-01-23T06:34:55.639Z,6.35
2023-01-23T06:37:23.268Z,4.97
2023-01-23T06:39:50.220Z,5.88
2023-01-23T06:42:17.203Z,5.63
2023-01-23T06:44:43.978Z,6.28
2023-01-23T06:47:11.161Z,5.72
2023-01-23T06:49:38.658Z,6.97
2023-01-23T06:52:05.827Z,7.03
2023-01-23T06:55:04.268Z,6.07
2023-01-23T06:57:31.346Z,5.75
2023-01-23T06:59:59.301Z,6.88
2023-01-23T07:02:26.274Z,6.45
2023-01-23T07:04:53.285Z,8.38
2023-01-23T07:07:20.230Z,8.10
2023-01-23T07:09:47.763Z,7.07
2023-01-23T07:12:14.668Z,6.03
2023-01-23T07:14:41.519Z,7.05
2023-01-23T07:17:08.731Z,5.65
2023-01-23T07:19:35.544Z,5.82
2023-01-23T07:22:02.647Z,4.88
2023-01-23T07:24:32.058Z,5.53
2023-01-23T07:26:59.568Z,7.15
2023-01-23T07:29:27.116Z,6.13
2023-01-23T07:31:54.353Z,5.72
2023-01-23T07:34:21.391Z,6.25
2023-01-23T07:36:48.124Z,7.15
2023-01-23T07:39:16.190Z,5.28
2023-01-23T07:41:44.832Z,4.72
2023-01-23T07:44:17.478Z,4.00
2023-01-23T07:46:45.430Z,3.65
2023-01-23T07:49:12.986Z,3.83
2023-01-23T07:51:39.878Z,4.68
2023-01-23T07:54:07.342Z,5.63
2023-01-23T07:56:34.126Z,5.85
2023-01-23T07:59:01.084Z,4.43
2023-01-23T08:01:27.937Z,5.20
2023-01-23T08:03:55.160Z,5.00
2023-01-23T08:06:22.020Z,5.38
2023-01-23T08:08:49.464Z,5.70
2023-01-23T08:11:16.321Z,4.82
2023-01-23T08:13:43.380Z,3.83
2023-01-23T08:16:12.707Z,4.03
2023-01-23T08:18:40.452Z,3.53
2023-01-23T08:21:07.297Z,3.63
2023-01-23T08:23:34.643Z,3.95
2023-01-23T08:26:03.095Z,4.97
2023-01-23T08:28:30.225Z,3.90
2023-01-23T08:31:06.371Z,4.70
2023-01-23T08:33:35.054Z,3.08
2023-01-23T08:36:02.439Z,3.35
2023-01-23T08:38:29.516Z,4.18
2023-01-23T08:40:58.908Z,4.18
2023-01-23T08:43:25.728Z,4.95
2023-01-23T08:45:56.369Z,5.80
2023-01-23T08:48:24.249Z,4.95
2023-01-23T08:50:51.851Z,5.18
2023-01-23T08:53:18.760Z,5.00
2023-01-23T08:55:45.784Z,5.50
2023-01-23T08:58:14.774Z,5.40
2023-01-23T09:00:41.824Z,4.15
2023-01-23T09:03:11.348Z,5.25
2023-01-23T09:05:38.302Z,4.80
2023-01-23T09:08:05.113Z,5.00
2023-01-23T09:10:31.829Z,4.57
2023-01-23T09:12:59.121Z,3.78
2023-01-23T09:15:25.771Z,4.03
2023-01-23T09:17:52.516Z,3.83
2023-01-23T09:20:20.366Z,3.80
2023-01-23T09:22:47.272Z,4.10
2023-01-23T09:25:14.508Z,4.13
2023-01-23T09:27:41.468Z,3.70
2023-01-23T09:30:08.835Z,4.05
2023-01-23T09:32:35.819Z,3.80
2023-01-23T09:35:02.544Z,3.65
2023-01-23T09:37:58.440Z,3.60
2023-01-23T09:40:26.762Z,2.55
2023-01-23T09:42:54.478Z,2.95
2023-01-23T09:45:23.048Z,3.40
2023-01-23T09:48:11.377Z,3.08
2023-01-23T09:50:40.179Z,4.50
2023-01-23T09:53:14.867Z,2.60
2023-01-23T09:56:03.251Z,4.85
2023-01-23T09:58:54.103Z,4.78
2023-01-23T10:01:20.816Z,3.40
2023-01-23T10:03:47.559Z,4.47
2023-01-23T10:06:17.314Z,5.65
2023-01-23T10:08:49.943Z,5.60
2023-01-23T10:11:34.804Z,4.53
2023-01-23T10:14:26.673Z,4.75
2023-01-23T10:17:22.744Z,3.88
2023-01-23T10:20:11.183Z,4.72
2023-01-23T10:22:39.601Z,5.00
2023-01-23T10:25:17.421Z,3.78
2023-01-23T10:27:45.863Z,5.35
2023-01-23T10:30:28.960Z,5.35
2023-01-23T10:33:10.123Z,6.38
2023-01-23T10:35:44.730Z,5.68
2023-01-23T10:38:33.585Z,6.97
2023-01-23T10:41:15.511Z,5.50
2023-01-23T10:43:42.695Z,7.97
2023-01-23T10:46:22.439Z,7.45
2023-01-23T10:48:49.905Z,9.10
2023-01-23T10:51:30.295Z,9.18
2023-01-23T10:54:11.360Z,10.23
2023-01-23T10:56:46.191Z,11.02
2023-01-23T10:59:44.694Z,9.07
2023-01-23T11:02:14.343Z,10.43
2023-01-23T11:04:42.614Z,11.95
2023-01-23T11:07:25.395Z,9.98
2023-01-23T11:09:56.364Z,9.80
2023-01-23T11:12:27.877Z,8.10
2023-01-23T11:15:25.112Z,8.77
2023-01-23T11:17:52.632Z,8.88
2023-01-23T11:20:31.834Z,7.90
2023-01-23T11:23:05.970Z,8.35
2023-01-23T11:25:33.532Z,6.38
2023-01-23T11:28:02.507Z,6.15
2023-01-23T11:30:39.566Z,5.65
2023-01-23T11:33:30.852Z,6.72
2023-01-23T11:36:17.912Z,6.32
2023-01-23T11:39:00.019Z,5.88
2023-01-23T11:41:31.260Z,4.95
2023-01-23T11:43:57.963Z,6.97
2023-01-23T11:46:24.660Z,5.13
2023-01-23T11:49:17.326Z,7.22
2023-01-23T11:51:47.824Z,5.78
2023-01-23T11:54:33.429Z,6.57
2023-01-23T11:57:33.847Z,6.07
2023-01-23T12:00:16.967Z,5.70
2023-01-23T12:02:58.537Z,6.60
2023-01-23T12:05:43.699Z,7.20
2023-01-23T12:08:38.123Z,7.50
2023-01-23T12:11:16.662Z,7.20
2023-01-23T12:13:56.117Z,6.45
2023-01-23T12:16:28.741Z,6.68
2023-01-23T12:19:12.231Z,5.75
2023-01-23T12:21:55.653Z,8.80
2023-01-23T12:24:31.561Z,8.35
2023-01-23T12:27:02.779Z,7.00
2023-01-23T12:30:03.469Z,7.75
2023-01-23T12:32:57.738Z,10.38
2023-01-23T12:35:24.400Z,11.20
2023-01-23T12:37:57.013Z,14.38
2023-01-23T12:40:42.179Z,11.37
2023-01-23T12:43:46.871Z,12.60
2023-01-23T12:46:26.445Z,12.13
2023-01-23T12:49:05.595Z,11.98
2023-01-23T12:51:39.155Z,13.43
2023-01-23T12:54:10.492Z,15.55
2023-01-23T12:56:37.546Z,16.75
2023-01-23T12:59:41.373Z,17.60
2023-01-23T13:02:16.623Z,16.80
2023-01-23T13:05:13.979Z,17.08
2023-01-23T13:07:55.935Z,17.13
2023-01-23T13:11:05.900Z,14.70
2023-01-23T13:13:32.615Z,14.02
2023-01-23T13:16:14.219Z,11.23
2023-01-23T13:19:00.472Z,11.25
2023-01-23T13:21:45.594Z,10.75
2023-01-23T13:24:40.071Z,9.85
2023-01-23T13:27:31.814Z,8.45
2023-01-23T13:29:59.085Z,9.55
2023-01-23T13:32:31.911Z,11.55
2023-01-23T13:34:58.874Z,9.15
2023-01-23T13:37:33.596Z,8.63
2023-01-23T13:40:19.629Z,9.57
2023-01-23T13:42:46.335Z,9.82
2023-01-23T13:45:27.459Z,7.47
2023-01-23T14:22:47.496Z,5.05
2023-01-23T14:25:17.692Z,3.40
2023-01-23T14:27:53.164Z,3.55
2023-01-23T14:30:24.865Z,3.65
2023-01-23T14:32:51.764Z,2.47
2023-01-23T14:35:26.275Z,2.35
2023-01-23T14:37:53.853Z,2.42
2023-01-23T14:40:27.667Z,2.75
2023-01-23T14:43:03.434Z,2.13
2023-01-23T14:45:33.089Z,2.15
2023-01-23T14:48:06.184Z,2.28
2023-01-23T14:50:33.769Z,2.78
2023-01-23T14:53:04.486Z,2.38
2023-01-23T14:55:31.710Z,2.42
2023-01-23T14:57:59.183Z,1.75
2023-01-23T15:00:26.287Z,2.88
2023-01-23T15:02:56.218Z,1.48
2023-01-23T15:05:30.357Z,1.80
2023-01-23T15:07:58.966Z,1.92
2023-01-23T15:10:41.434Z,2.13
2023-01-23T15:13:12.310Z,2.55
2023-01-23T15:15:40.277Z,1.70
2023-01-23T15:18:27.631Z,2.28
2023-01-23T15:20:56.880Z,1.48
2023-01-23T15:23:33.516Z,2.33
2023-01-23T15:26:18.323Z,1.58
2023-01-23T15:28:51.791Z,2.33
2023-01-23T15:33:57.791Z,2.28
2023-01-23T15:36:28.660Z,2.15
2023-01-23T15:38:56.659Z,1.98
2023-01-23T15:42:04.567Z,1.50
2023-01-23T15:44:32.284Z,2.38
2023-01-23T15:47:03.954Z,2.15
2023-01-23T15:49:35.523Z,2.60
2023-01-23T15:52:14.710Z,2.42
2023-01-23T15:54:41.887Z,1.75
2023-01-23T15:57:10.901Z,1.77
2023-01-23T15:59:37.672Z,1.67
2023-01-23T16:02:05.652Z,2.08
2023-01-23T16:04:32.968Z,1.60
2023-01-23T16:07:06.375Z,1.67
2023-01-23T16:09:34.921Z,1.60
2023-01-23T16:12:02.185Z,1.95
2023-01-23T16:14:29.225Z,1.85
2023-01-23T16:16:58.284Z,3.28
2023-01-23T16:19:31.364Z,1.77
2023-01-23T16:22:04.595Z,3.15
2023-01-23T16:24:35.260Z,3.15
2023-01-23T16:27:02.605Z,2.53
2023-01-23T16:29:32.838Z,1.90
2023-01-23T16:32:00.580Z,1.50
2023-01-23T16:34:27.899Z,1.83
2023-01-23T16:36:56.160Z,4.05
2023-01-23T16:39:47.107Z,2.38
2023-01-23T16:42:21.806Z,2.08
2023-01-23T16:44:48.991Z,3.65
2023-01-23T16:47:15.735Z,2.90
2023-01-23T16:49:51.948Z,2.40
2023-01-23T16:52:19.277Z,2.58
2023-01-23T16:54:46.013Z,2.42
2023-01-23T16:57:16.141Z,2.22
2023-01-23T16:59:42.871Z,2.38
2023-01-23T17:02:19.789Z,2.35
2023-01-23T17:04:46.573Z,2.17
2023-01-23T17:07:17.171Z,2.83
2023-01-23T17:09:44.669Z,2.65
2023-01-23T17:12:45.312Z,2.35
2023-01-23T17:15:18.895Z,2.60
2023-01-23T17:17:51.310Z,2.55
2023-01-23T17:20:18.547Z,2.50
2023-01-23T17:22:45.910Z,2.25
2023-01-23T17:25:19.995Z,2.25
2023-01-23T17:27:57.428Z,2.58
2023-01-23T17:30:33.702Z,1.90
2023-01-23T17:33:00.540Z,2.53
2023-01-23T17:35:37.176Z,2.33
2023-01-23T17:38:04.077Z,2.13
2023-01-23T17:40:31.235Z,2.03
2023-01-23T17:42:58.486Z,1.92
2023-01-23T17:45:27.256Z,1.98
2023-01-23T17:47:54.486Z,2.97
2023-01-23T17:50:23.510Z,2.60
2023-01-23T17:52:50.875Z,2.63
2023-01-23T17:55:25.534Z,2.42
2023-01-23T17:57:52.812Z,1.95
2023-01-23T18:00:20.060Z,3.22
2023-01-23T18:02:57.404Z,3.35
2023-01-23T18:05:24.267Z,2.97
2023-01-23T18:07:54.098Z,2.72
2023-01-23T18:10:22.196Z,3.53
2023-01-23T18:13:13.872Z,4.00
2023-01-23T18:16:03.030Z,4.45
2023-01-23T18:18:37.492Z,3.08
2023-01-23T18:21:05.351Z,4.32
2023-01-23T18:23:32.719Z,3.85
2023-01-23T18:26:05.936Z,5.20
2023-01-23T18:28:40.016Z,2.80
2023-01-23T18:31:33.344Z,2.78
2023-01-23T18:34:03.464Z,3.03
2023-01-23T18:37:03.529Z,2.88
2023-01-23T18:39:37.419Z,3.95
2023-01-23T18:42:28.505Z,4.45
2023-01-23T18:44:58.203Z,2.70
2023-01-23T18:47:25.772Z,2.90
2023-01-23T18:49:52.772Z,3.25
2023-01-23T18:52:48.551Z,3.88
2023-01-23T18:55:21.637Z,3.58
2023-01-23T18:57:57.607Z,3.33
2023-01-23T19:00:44.777Z,3.05
2023-01-23T19:03:16.313Z,2.33
2023-01-23T19:05:43.252Z,2.67
2023-01-23T19:08:32.514Z,2.78
2023-01-23T19:11:06.995Z,2.28
2023-01-23T19:13:51.101Z,2.60
2023-01-23T19:16:33.903Z,2.63
2023-01-23T19:19:16.681Z,2.20
2023-01-23T19:21:44.799Z,2.95
2023-01-23T19:24:11.604Z,2.88
2023-01-23T19:26:42.031Z,3.00
2023-01-23T19:29:20.878Z,3.95
2023-01-23T19:32:03.626Z,2.28
2023-01-23T19:34:31.222Z,2.33
2023-01-23T19:36:58.031Z,3.92
2023-01-23T19:39:25.125Z,2.55
2023-01-23T19:41:53.487Z,2.75
2023-01-23T19:44:22.751Z,2.13
2023-01-23T19:46:49.970Z,3.45
2023-01-23T19:49:18.279Z,3.85
2023-01-23T19:51:45.625Z,2.70
2023-01-23T19:54:13.445Z,3.15
2023-01-23T19:56:40.430Z,3.00
2023-01-23T19:59:07.272Z,3.33
2023-01-23T20:01:54.359Z,3.90
2023-01-23T20:04:22.588Z,2.25
2023-01-23T20:06:51.779Z,2.42
2023-01-23T20:09:18.745Z,3.45
2023-01-23T20:11:46.112Z,2.97
2023-01-23T20:14:13.116Z,2.88
2023-01-23T20:16:42.830Z,3.97
2023-01-23T20:19:13.332Z,2.50
2023-01-23T20:21:40.009Z,3.28
2023-01-23T20:24:08.183Z,3.20
2023-01-23T20:26:35.203Z,2.78
2023-01-23T20:29:02.088Z,3.22
2023-01-23T20:31:29.565Z,2.75
2023-01-23T20:33:57.888Z,2.83
2023-01-23T20:36:25.566Z,3.28
2023-01-23T20:38:55.497Z,3.55
2023-01-23T20:41:22.543Z,3.28
2023-01-23T20:43:49.312Z,3.00
2023-01-23T20:46:16.484Z,3.72
2023-01-23T20:48:44.299Z,3.28
2023-01-23T20:51:12.243Z,3.10
2023-01-23T20:53:40.052Z,3.13
2023-01-23T20:56:17.670Z,3.35
2023-01-23T20:59:04.310Z,2.90
2023-01-23T21:01:54.747Z,2.92
2023-01-23T21:04:21.840Z,2.88
2023-01-23T21:06:49.607Z,3.25
2023-01-23T21:09:16.603Z,2.55
2023-01-23T21:11:43.600Z,3.00
2023-01-23T21:14:10.300Z,2.65
2023-01-23T21:16:37.058Z,3.00
2023-01-23T21:19:04.582Z,2.80
2023-01-23T21:21:31.291Z,2.60
2023-01-23T21:23:58.121Z,2.80
2023-01-23T21:26:25.762Z,4.00
2023-01-23T21:28:53.133Z,3.40
2023-01-23T21:31:22.161Z,3.60
2023-01-23T21:33:49.090Z,4.05
2023-01-23T21:36:22.455Z,3.60
2023-01-23T21:38:51.203Z,5.10
2023-01-23T21:41:18.210Z,3.63
2023-01-23T21:43:45.547Z,3.72
2023-01-23T21:46:12.388Z,4.75
2023-01-23T21:48:39.222Z,3.85
2023-01-23T21:51:10.754Z,3.75
2023-01-23T21:53:38.515Z,3.35
2023-01-23T21:56:05.733Z,3.10
2023-01-23T21:58:32.872Z,3.78
2023-01-23T22:01:19.500Z,2.80
2023-01-23T22:03:46.544Z,3.42
2023-01-23T22:06:13.403Z,3.42
2023-01-23T22:08:40.176Z,2.45
2023-01-23T22:11:07.517Z,2.33
2023-01-23T22:13:34.330Z,2.60
2023-01-23T22:16:01.233Z,3.50
2023-01-23T22:18:28.526Z,4.10
2023-01-23T22:21:00.887Z,3.30
2023-01-23T22:23:27.830Z,2.60
2023-01-23T22:26:03.053Z,3.10
2023-01-23T22:28:29.736Z,4.07
2023-01-23T22:30:57.055Z,3.53
2023-01-23T22:33:24.000Z,3.90
2023-01-23T22:35:52.634Z,3.50
2023-01-23T22:38:19.958Z,4.05
2023-01-23T22:40:46.608Z,3.88
2023-01-23T22:43:13.298Z,3.97
2023-01-23T22:45:39.952Z,4.10
2023-01-23T22:48:06.920Z,4.25
2023-01-23T22:50:33.682Z,3.50
2023-01-23T22:53:00.338Z,3.00
2023-01-23T22:55:27.123Z,3.17
2023-01-23T22:57:53.829Z,3.05
2023-01-23T23:00:20.971Z,3.25
2023-01-23T23:02:47.727Z,3.80
2023-01-23T23:05:14.477Z,3.60
2023-01-23T23:07:41.324Z,4.18
2023-01-23T23:10:09.139Z,3.80
2023-01-23T23:12:35.859Z,4.55
2023-01-23T23:15:03.165Z,3.50
2023-01-23T23:17:30.147Z,3.28
2023-01-23T23:19:56.874Z,4.70
2023-01-23T23:22:23.553Z,3.80
2023-01-23T23:24:50.263Z,4.57
2023-01-23T23:27:16.936Z,3.88
2023-01-23T23:29:43.639Z,6.25
2023-01-23T23:32:10.395Z,3.97
2023-01-23T23:34:37.529Z,4.88
2023-01-23T23:37:04.373Z,3.63
2023-01-23T23:39:31.067Z,5.03
2023-01-23T23:41:58.518Z,5.18
2023-01-23T23:44:25.316Z,4.18
2023-01-23T23:46:52.162Z,5.05
2023-01-23T23:49:18.999Z,4.15
2023-01-23T23:51:45.827Z,4.47
2023-01-23T23:54:12.611Z,3.75
2023-01-23T23:56:39.286Z,3.75
2023-01-23T23:59:05.962Z,3.33
